This is the latest recevied weather packets stored in our database for station/object DM4SB-13. If no packets are shown the sender has not sent any weather packets the latest 10 day(s).
| Time | Temp. | Humidity | Pressure | Rain* | Wind** | Luminosity | Snow |
|---|---|---|---|---|---|---|---|
| 1777834818 | 21.11° C | 41% | 1012.6 hPa | - | - | - | - |
| 1777834218 | 21.67° C | 40% | 1012.5 hPa | - | - | - | - |
| 1777831818 | 22.22° C | 38% | 1012 hPa | - | - | - | - |
| 1777828818 | 22.78° C | 36% | 1011.6 hPa | - | - | - | - |
| 1777828218 | 23.33° C | 36% | 1011.3 hPa | - | - | - | - |
| 1777824018 | 25° C | 34% | 1011 hPa | - | - | - | - |
| 1777818618 | 24.44° C | 39% | 1011.9 hPa | - | - | - | - |
| 1777818017 | 21.11° C | 42% | 1012.1 hPa | - | - | - | - |
| 1777817418 | 21.11° C | 40% | 1011.9 hPa | - | - | - | - |
| 1777813818 | 20.56° C | 36% | 1012.3 hPa | - | - | - | - |
| 1777811418 | 20° C | 43% | 1012.4 hPa | - | - | - | - |
| 1777810218 | 18.89° C | 46% | 1012.8 hPa | - | - | - | - |
| 1777809018 | 18.89° C | 46% | 1013.3 hPa | - | - | - | - |
| 1777805418 | 17.78° C | 49% | 1014.1 hPa | - | - | - | - |
| 1777804218 | 17.22° C | 49% | 1014.4 hPa | - | - | - | - |
| 1777801818 | 16.67° C | 50% | 1014.9 hPa | - | - | - | - |
| 1777801217 | 16.67° C | 50% | 1015.2 hPa | - | - | - | - |
| 1777800617 | 16.11° C | 50% | 1015.6 hPa | - | - | - | - |
| 1777800018 | 16.11° C | 50% | 1015.6 hPa | - | - | - | - |
| 1777799418 | 16.11° C | 50% | 1015.5 hPa | - | - | - | - |
| 1777798818 | 15.56° C | 50% | 1015.7 hPa | - | - | - | - |
| 1777798217 | 15.56° C | 51% | 1015.8 hPa | - | - | - | - |
| 1777797618 | 15.56° C | 52% | 1015.9 hPa | - | - | - | - |
| 1777797017 | 15° C | 53% | 1016 hPa | - | - | - | - |
| 1777796418 | 15° C | 53% | 1016.1 hPa | - | - | - | - |
* Rain since midnight (hover to see other rain measurements)
** Current wind speed in m/s (hover to see current wind gust speed)